createdAt,value
2019-02-14T00:00:27.054Z,11.65
2019-02-14T00:01:30.573Z,9.70
2019-02-14T00:02:34.069Z,10.70
2019-02-14T00:03:37.573Z,10.63
2019-02-14T00:04:41.006Z,9.83
2019-02-14T00:05:44.466Z,9.30
2019-02-14T00:06:47.898Z,9.65
2019-02-14T00:07:51.397Z,8.85
2019-02-14T00:08:54.828Z,9.43
2019-02-14T00:09:58.431Z,8.75
2019-02-14T00:11:01.899Z,8.80
2019-02-14T00:12:05.394Z,7.97
2019-02-14T00:13:08.894Z,7.78
2019-02-14T00:14:12.338Z,8.68
2019-02-14T00:15:15.833Z,8.93
2019-02-14T00:16:19.315Z,8.18
2019-02-14T00:17:22.752Z,8.90
2019-02-14T00:18:26.248Z,7.67
2019-02-14T00:19:29.683Z,6.70
2019-02-14T00:20:33.200Z,7.08
2019-02-14T00:21:36.682Z,7.95
2019-02-14T00:22:40.211Z,7.22
2019-02-14T00:23:43.627Z,7.47
2019-02-14T00:24:47.065Z,8.05
2019-02-14T00:25:50.493Z,8.05
2019-02-14T00:26:53.949Z,8.45
2019-02-14T00:27:57.386Z,8.53
2019-02-14T00:29:00.826Z,7.90
2019-02-14T00:30:05.476Z,8.45
2019-02-14T00:31:08.899Z,8.15
2019-02-14T00:32:12.414Z,8.88
2019-02-14T00:33:15.852Z,8.33
2019-02-14T00:34:19.313Z,8.35
2019-02-14T00:35:25.053Z,8.18
2019-02-14T00:36:27.920Z,8.48
2019-02-14T00:37:31.368Z,8.38
2019-02-14T00:38:34.792Z,8.50
2019-02-14T00:39:38.227Z,7.55
2019-02-14T00:40:41.655Z,8.38
2019-02-14T00:41:45.119Z,8.93
2019-02-14T00:42:48.584Z,8.80
2019-02-14T00:43:52.023Z,8.90
2019-02-14T00:44:55.532Z,8.00
2019-02-14T00:45:59.041Z,8.03
2019-02-14T00:47:02.570Z,8.23
2019-02-14T00:48:06.012Z,7.12
2019-02-14T00:49:09.441Z,8.35
2019-02-14T00:50:12.941Z,8.60
2019-02-14T00:51:16.375Z,8.40
2019-02-14T00:52:19.809Z,9.08
2019-02-14T00:53:23.266Z,8.20
2019-02-14T00:54:26.707Z,8.53
2019-02-14T00:55:30.142Z,8.63
2019-02-14T00:56:33.573Z,8.75
2019-02-14T00:57:37.032Z,8.98
2019-02-14T00:58:40.532Z,8.70
2019-02-14T00:59:43.962Z,8.53
2019-02-14T01:00:47.471Z,9.18
2019-02-14T01:01:50.936Z,7.90
2019-02-14T01:02:54.386Z,9.10
2019-02-14T01:03:57.819Z,8.30
2019-02-14T01:05:01.264Z,7.87
2019-02-14T01:06:04.683Z,9.33
2019-02-14T01:07:08.581Z,8.40
2019-02-14T01:08:12.038Z,9.25
2019-02-14T01:09:15.478Z,8.38
2019-02-14T01:10:18.975Z,8.53
2019-02-14T01:11:22.418Z,8.95
2019-02-14T01:12:25.921Z,10.32
2019-02-14T01:13:29.374Z,16.05
2019-02-14T01:14:32.809Z,35.13
2019-02-14T01:15:36.525Z,52.15
2019-02-14T01:16:40.036Z,16.45
2019-02-14T01:17:43.540Z,12.47
2019-02-14T01:18:46.994Z,9.95
2019-02-14T01:19:50.443Z,10.23
2019-02-14T01:20:53.875Z,9.73
2019-02-14T01:21:57.369Z,8.63
2019-02-14T01:23:00.801Z,9.20
2019-02-14T01:24:04.331Z,9.75
2019-02-14T01:25:07.900Z,9.50
2019-02-14T01:26:11.324Z,8.90
2019-02-14T01:27:14.751Z,9.03
2019-02-14T01:28:18.246Z,8.83
2019-02-14T01:29:21.870Z,9.75
2019-02-14T01:30:25.300Z,8.98
2019-02-14T01:31:28.731Z,9.55
2019-02-14T01:32:32.162Z,9.00
2019-02-14T01:33:35.670Z,8.93
2019-02-14T01:34:39.197Z,8.43
2019-02-14T01:35:42.626Z,9.55
2019-02-14T01:36:46.131Z,9.25
2019-02-14T01:37:49.561Z,8.88
2019-02-14T01:38:53.060Z,9.58
2019-02-14T01:39:56.509Z,9.40
2019-02-14T01:40:59.932Z,9.83
2019-02-14T01:42:03.371Z,8.75
2019-02-14T01:43:06.794Z,9.13
2019-02-14T01:44:10.220Z,9.30
2019-02-14T01:45:13.667Z,9.05
2019-02-14T01:46:17.104Z,10.40
2019-02-14T01:47:20.551Z,10.80
2019-02-14T01:48:23.985Z,10.20
2019-02-14T01:49:27.461Z,10.48
2019-02-14T01:50:31.065Z,10.82
2019-02-14T01:51:34.495Z,11.18
2019-02-14T01:52:37.923Z,11.43
2019-02-14T01:53:41.355Z,11.85
2019-02-14T01:54:45.019Z,11.50
2019-02-14T01:55:48.431Z,10.75
2019-02-14T01:56:51.947Z,10.50
2019-02-14T01:57:55.378Z,9.60
2019-02-14T01:58:58.812Z,9.13
2019-02-14T02:00:02.478Z,9.10
2019-02-14T02:01:06.014Z,8.90
2019-02-14T02:02:09.539Z,8.85
2019-02-14T02:03:12.975Z,9.60
2019-02-14T02:04:16.420Z,9.45
2019-02-14T02:05:19.862Z,9.30
2019-02-14T02:06:23.450Z,8.75
2019-02-14T02:07:26.990Z,9.88
2019-02-14T02:08:30.404Z,9.05
2019-02-14T02:09:33.919Z,9.40
2019-02-14T02:10:37.435Z,10.08
2019-02-14T02:11:40.941Z,8.95
2019-02-14T02:12:44.429Z,9.10
2019-02-14T02:13:47.929Z,9.25
2019-02-14T02:14:51.354Z,9.20
2019-02-14T02:15:54.792Z,8.95
2019-02-14T02:16:58.315Z,9.25
2019-02-14T02:18:01.812Z,9.83
2019-02-14T02:19:05.312Z,10.48
2019-02-14T02:20:10.180Z,10.28
2019-02-14T02:21:13.618Z,9.90
2019-02-14T02:22:17.141Z,9.18
2019-02-14T02:23:20.590Z,9.43
2019-02-14T02:24:24.026Z,10.05
2019-02-14T02:25:27.523Z,9.78
2019-02-14T02:26:30.968Z,9.50
2019-02-14T02:27:34.396Z,9.60
2019-02-14T02:28:37.832Z,10.78
2019-02-14T02:29:41.262Z,10.30
2019-02-14T02:30:44.690Z,9.75
2019-02-14T02:31:48.226Z,12.28
2019-02-14T02:32:51.746Z,10.80
2019-02-14T02:33:55.168Z,9.70
2019-02-14T02:34:58.617Z,11.43
2019-02-14T02:36:02.050Z,10.50
2019-02-14T02:37:05.510Z,10.23
2019-02-14T02:38:09.015Z,10.10
2019-02-14T02:39:12.440Z,10.48
2019-02-14T02:40:15.903Z,10.40
2019-02-14T02:41:19.347Z,10.00
2019-02-14T02:42:23.030Z,9.63
2019-02-14T02:43:26.504Z,9.43
2019-02-14T02:44:30.006Z,10.50
2019-02-14T02:45:33.443Z,10.30
2019-02-14T02:46:36.883Z,10.00
2019-02-14T02:47:40.482Z,9.58
2019-02-14T02:48:43.943Z,9.78
2019-02-14T02:49:47.362Z,9.53
2019-02-14T02:50:50.873Z,10.45
2019-02-14T02:51:54.299Z,10.10
2019-02-14T02:52:57.828Z,10.28
2019-02-14T02:54:01.287Z,10.38
2019-02-14T02:55:06.159Z,9.53
2019-02-14T02:56:09.611Z,10.15
2019-02-14T02:57:13.046Z,11.53
2019-02-14T02:58:16.577Z,11.53
2019-02-14T02:59:20.028Z,10.80
2019-02-14T03:00:23.527Z,10.90
2019-02-14T03:01:27.098Z,11.75
2019-02-14T03:02:30.541Z,11.30
2019-02-14T03:03:33.992Z,11.05
2019-02-14T03:04:37.439Z,11.30
2019-02-14T03:05:40.882Z,12.40
2019-02-14T03:06:44.383Z,12.33
2019-02-14T03:07:47.877Z,10.78
2019-02-14T03:08:51.403Z,11.63
2019-02-14T03:09:54.837Z,10.95
2019-02-14T03:10:58.275Z,11.30
2019-02-14T03:12:01.779Z,10.38
2019-02-14T03:13:05.207Z,10.15
2019-02-14T03:14:08.683Z,10.55
2019-02-14T03:15:14.170Z,9.88
2019-02-14T03:16:17.557Z,11.35
2019-02-14T03:17:21.000Z,10.40
2019-02-14T03:18:24.422Z,9.18
2019-02-14T03:19:27.874Z,9.65
2019-02-14T03:20:31.311Z,10.00
2019-02-14T03:21:34.745Z,11.03
2019-02-14T03:22:38.191Z,11.00
2019-02-14T03:23:41.622Z,8.80
2019-02-14T03:24:45.066Z,9.65
2019-02-14T03:25:48.520Z,9.38
2019-02-14T03:26:51.954Z,10.40
2019-02-14T03:27:55.385Z,9.55
2019-02-14T03:28:58.861Z,8.55
2019-02-14T03:30:02.271Z,9.25
2019-02-14T03:31:05.723Z,9.10
2019-02-14T03:32:09.174Z,8.88
2019-02-14T03:33:12.594Z,9.15
2019-02-14T03:34:16.026Z,8.35
2019-02-14T03:35:19.473Z,8.55
2019-02-14T03:36:22.900Z,8.38
2019-02-14T03:37:26.403Z,8.03
2019-02-14T03:38:29.831Z,7.97
2019-02-14T03:39:33.278Z,8.08
2019-02-14T03:40:36.716Z,8.55
2019-02-14T03:41:40.244Z,8.48
2019-02-14T03:42:43.676Z,8.90
2019-02-14T03:43:47.121Z,9.38
2019-02-14T03:44:50.552Z,8.83
2019-02-14T03:45:54.005Z,8.85
2019-02-14T03:46:57.448Z,8.60
2019-02-14T03:48:00.950Z,10.15
2019-02-14T03:49:04.470Z,11.43
2019-02-14T03:50:10.344Z,12.23
2019-02-14T03:51:13.791Z,13.00
2019-02-14T03:52:17.296Z,11.93
2019-02-14T03:53:20.808Z,10.90
2019-02-14T03:54:24.247Z,11.00
2019-02-14T03:55:27.681Z,10.13
2019-02-14T03:56:31.145Z,9.60
2019-02-14T03:57:34.591Z,8.45
2019-02-14T03:58:38.101Z,8.50
2019-02-14T03:59:41.586Z,8.93
2019-02-14T04:00:45.021Z,8.60
2019-02-14T04:01:48.467Z,8.25
2019-02-14T04:02:51.982Z,8.03
2019-02-14T04:03:55.408Z,7.50
2019-02-14T04:04:58.842Z,8.28
2019-02-14T04:06:02.301Z,9.35
2019-02-14T04:07:05.744Z,8.48
2019-02-14T04:08:09.178Z,8.80
2019-02-14T04:09:12.601Z,7.72
2019-02-14T04:10:16.023Z,8.70
2019-02-14T04:11:19.449Z,8.00
2019-02-14T04:12:22.898Z,7.80
2019-02-14T04:13:26.326Z,8.33
2019-02-14T04:14:29.756Z,8.40
2019-02-14T04:15:33.331Z,7.67
2019-02-14T04:16:36.756Z,8.55
2019-02-14T04:17:40.366Z,7.35
2019-02-14T04:18:43.815Z,7.60
2019-02-14T04:19:47.325Z,7.35
2019-02-14T04:20:50.764Z,7.20
2019-02-14T04:21:54.261Z,7.47
2019-02-14T04:22:57.722Z,7.30
2019-02-14T04:24:01.148Z,7.22
2019-02-14T04:25:06.019Z,7.35
2019-02-14T04:26:09.467Z,7.30
2019-02-14T04:27:12.963Z,6.60
2019-02-14T04:28:16.411Z,7.05
2019-02-14T04:29:19.853Z,6.70
2019-02-14T04:30:23.309Z,7.00
2019-02-14T04:31:26.739Z,6.30
2019-02-14T04:32:30.168Z,7.22
2019-02-14T04:33:33.615Z,5.80
2019-02-14T04:34:37.073Z,6.15
2019-02-14T04:35:40.520Z,5.65
2019-02-14T04:36:43.946Z,6.37
2019-02-14T04:37:47.373Z,5.62
2019-02-14T04:38:50.828Z,6.30
2019-02-14T04:39:54.263Z,5.33
2019-02-14T04:40:57.689Z,6.12
2019-02-14T04:42:01.105Z,6.28
2019-02-14T04:43:04.532Z,5.97
2019-02-14T04:44:07.981Z,5.50
2019-02-14T04:45:12.775Z,5.55
2019-02-14T04:46:16.200Z,5.75
2019-02-14T04:47:19.630Z,5.30
2019-02-14T04:48:23.049Z,5.67
2019-02-14T04:49:26.512Z,6.30
2019-02-14T04:50:29.972Z,5.30
2019-02-14T04:51:33.412Z,6.08
2019-02-14T04:52:36.842Z,7.22
2019-02-14T04:53:40.305Z,8.65
2019-02-14T04:54:43.773Z,9.70
2019-02-14T04:55:47.286Z,9.20
2019-02-14T04:56:50.719Z,10.03
2019-02-14T04:57:54.163Z,11.93
2019-02-14T04:58:57.596Z,10.90
2019-02-14T05:00:01.038Z,8.73
2019-02-14T05:01:04.536Z,7.50
2019-02-14T05:02:07.962Z,7.25
2019-02-14T05:03:11.399Z,7.10
2019-02-14T05:04:14.837Z,7.10
2019-02-14T05:05:18.272Z,6.17
2019-02-14T05:06:21.699Z,6.55
2019-02-14T05:07:25.121Z,7.67
2019-02-14T05:08:28.546Z,7.30
2019-02-14T05:09:31.970Z,7.10
2019-02-14T05:10:35.417Z,6.83
2019-02-14T05:11:38.876Z,7.65
2019-02-14T05:12:42.299Z,7.65
2019-02-14T05:13:45.728Z,14.73
2019-02-14T05:14:49.165Z,14.03
2019-02-14T05:15:52.611Z,9.80
2019-02-14T05:16:56.041Z,9.28
2019-02-14T05:17:59.467Z,7.60
2019-02-14T05:19:02.896Z,6.85
2019-02-14T05:20:10.909Z,7.87
2019-02-14T05:21:14.352Z,7.78
2019-02-14T05:22:17.802Z,7.85
2019-02-14T05:23:21.233Z,7.90
2019-02-14T05:24:24.726Z,7.25
2019-02-14T05:25:28.218Z,7.42
2019-02-14T05:26:31.687Z,8.05
2019-02-14T05:27:35.127Z,7.40
2019-02-14T05:28:38.555Z,7.83
2019-02-14T05:29:41.988Z,7.42
2019-02-14T05:30:45.564Z,7.62
2019-02-14T05:31:49.015Z,8.65
2019-02-14T05:32:52.451Z,6.70
2019-02-14T05:33:55.894Z,7.60
2019-02-14T05:34:59.324Z,7.22
2019-02-14T05:36:02.766Z,8.50
2019-02-14T05:37:06.233Z,7.50
2019-02-14T05:38:09.660Z,7.55
2019-02-14T05:39:13.103Z,6.33
2019-02-14T05:40:16.539Z,7.15
2019-02-14T05:41:19.977Z,7.87
2019-02-14T05:42:25.109Z,7.20
2019-02-14T05:43:28.667Z,7.17
2019-02-14T05:44:32.093Z,7.10
2019-02-14T05:45:35.513Z,6.53
2019-02-14T05:46:38.926Z,5.85
2019-02-14T05:47:42.719Z,5.90
2019-02-14T05:48:46.146Z,5.70
2019-02-14T05:49:49.580Z,5.97
2019-02-14T05:50:52.995Z,5.60
2019-02-14T05:51:56.423Z,5.97
2019-02-14T05:52:59.870Z,6.33
2019-02-14T05:54:03.394Z,6.35
2019-02-14T05:55:09.363Z,6.45
2019-02-14T05:56:12.857Z,5.47
2019-02-14T05:57:16.278Z,6.20
2019-02-14T05:58:19.725Z,6.78
2019-02-14T05:59:23.157Z,6.15
2019-02-14T06:00:26.588Z,6.08
2019-02-14T06:01:30.111Z,6.42
2019-02-14T06:02:33.561Z,7.28
2019-02-14T06:03:37.055Z,7.72
2019-02-14T06:04:40.494Z,7.17
2019-02-14T06:05:43.926Z,8.15
2019-02-14T06:06:47.360Z,7.80
2019-02-14T06:07:50.859Z,7.97
2019-02-14T06:08:54.347Z,7.85
2019-02-14T06:09:57.785Z,7.45
2019-02-14T06:11:01.225Z,7.62
2019-02-14T06:12:04.657Z,8.85
2019-02-14T06:13:08.108Z,8.43
2019-02-14T06:14:11.538Z,8.35
2019-02-14T06:15:15.203Z,8.50
2019-02-14T06:16:18.633Z,7.60
2019-02-14T06:17:22.060Z,7.58
2019-02-14T06:18:25.504Z,7.80
2019-02-14T06:19:28.962Z,7.53
2019-02-14T06:20:32.417Z,7.40
2019-02-14T06:21:35.849Z,8.00
2019-02-14T06:22:39.353Z,7.67
2019-02-14T06:23:42.794Z,7.00
2019-02-14T06:24:46.252Z,7.80
2019-02-14T06:25:49.688Z,7.55
2019-02-14T06:26:53.121Z,7.58
2019-02-14T06:27:56.618Z,7.72
2019-02-14T06:29:00.061Z,7.35
2019-02-14T06:30:04.056Z,8.23
2019-02-14T06:31:07.543Z,7.62
2019-02-14T06:32:11.057Z,7.30
2019-02-14T06:33:14.492Z,7.42
2019-02-14T06:34:17.945Z,7.55
2019-02-14T06:35:21.525Z,7.85
2019-02-14T06:36:24.971Z,7.25
2019-02-14T06:37:28.401Z,8.73
2019-02-14T06:38:31.899Z,8.18
2019-02-14T06:39:35.378Z,7.53
2019-02-14T06:40:38.807Z,7.28
2019-02-14T06:41:42.250Z,6.78
2019-02-14T06:42:45.693Z,7.45
2019-02-14T06:43:49.112Z,6.47
2019-02-14T06:44:52.567Z,7.03
2019-02-14T06:45:56.017Z,7.95
2019-02-14T06:46:59.525Z,8.33
2019-02-14T06:48:02.955Z,7.95
2019-02-14T06:49:06.380Z,7.85
2019-02-14T06:50:10.341Z,7.47
2019-02-14T06:51:13.856Z,7.95
2019-02-14T06:52:17.302Z,7.50
2019-02-14T06:53:20.816Z,8.68
2019-02-14T06:54:24.257Z,7.80
2019-02-14T06:55:27.793Z,7.67
2019-02-14T06:56:31.254Z,8.15
2019-02-14T06:57:34.690Z,11.35
2019-02-14T06:58:38.128Z,14.50
2019-02-14T06:59:41.602Z,13.35
2019-02-14T07:00:45.037Z,12.13
2019-02-14T07:01:48.487Z,12.85
2019-02-14T07:02:51.899Z,9.43
2019-02-14T07:03:55.329Z,9.33
2019-02-14T07:04:58.756Z,7.65
2019-02-14T07:06:02.287Z,8.30
2019-02-14T07:07:05.714Z,8.48
2019-02-14T07:08:09.146Z,8.25
2019-02-14T07:09:12.569Z,7.37
2019-02-14T07:10:16.004Z,7.70
2019-02-14T07:11:19.469Z,6.10
2019-02-14T07:12:22.911Z,8.20
2019-02-14T07:13:26.414Z,7.85
2019-02-14T07:14:29.859Z,7.08
2019-02-14T07:15:33.306Z,7.35
2019-02-14T07:16:36.743Z,6.25
2019-02-14T07:17:40.198Z,6.60
2019-02-14T07:18:43.646Z,5.80
2019-02-14T07:19:47.180Z,6.72
2019-02-14T07:20:50.611Z,7.08
2019-02-14T07:21:54.063Z,6.03
2019-02-14T07:22:57.500Z,6.62
2019-02-14T07:24:00.946Z,7.25
2019-02-14T07:25:05.831Z,6.67
2019-02-14T07:26:09.259Z,6.70
2019-02-14T07:27:12.744Z,7.17
2019-02-14T07:28:16.170Z,7.78
2019-02-14T07:29:19.599Z,7.50
2019-02-14T07:30:25.126Z,7.67
2019-02-14T07:31:28.587Z,7.92
2019-02-14T07:32:32.039Z,7.87
2019-02-14T07:33:35.493Z,9.45
2019-02-14T07:34:38.926Z,11.73
2019-02-14T07:35:42.359Z,10.50
2019-02-14T07:36:45.792Z,9.95
2019-02-14T07:37:49.266Z,9.40
2019-02-14T07:38:52.830Z,9.28
2019-02-14T07:39:56.282Z,10.15
2019-02-14T07:40:59.701Z,9.40
2019-02-14T07:42:03.132Z,12.75
2019-02-14T07:43:06.645Z,11.65
2019-02-14T07:44:10.167Z,10.63
2019-02-14T07:45:15.350Z,10.10
2019-02-14T07:46:22.695Z,9.68
2019-02-14T07:47:23.932Z,10.35
2019-02-14T07:48:27.397Z,11.12
2019-02-14T07:49:30.837Z,10.75
2019-02-14T07:50:34.330Z,9.20
2019-02-14T07:51:37.760Z,9.30
2019-02-14T07:52:41.264Z,8.53
2019-02-14T07:53:44.706Z,9.63
2019-02-14T07:54:48.140Z,9.45
2019-02-14T07:55:51.578Z,8.85
2019-02-14T07:56:55.029Z,8.98
2019-02-14T07:57:58.460Z,8.55
2019-02-14T07:59:01.898Z,8.63
2019-02-14T08:00:08.804Z,8.58
2019-02-14T08:01:12.311Z,8.78
2019-02-14T08:02:15.740Z,8.83
2019-02-14T08:03:19.238Z,8.18
2019-02-14T08:04:22.689Z,9.33
2019-02-14T08:05:26.202Z,8.70
2019-02-14T08:06:29.628Z,9.50
2019-02-14T08:07:35.938Z,10.80
2019-02-14T08:08:38.220Z,8.93
2019-02-14T08:09:41.747Z,9.85
2019-02-14T08:10:45.222Z,8.70
2019-02-14T08:11:48.727Z,9.88
2019-02-14T08:12:52.156Z,9.20
2019-02-14T08:13:55.582Z,9.48
2019-02-14T08:14:59.041Z,9.38
2019-02-14T08:16:02.599Z,9.03
2019-02-14T08:17:06.041Z,9.43
2019-02-14T08:18:09.539Z,9.78
2019-02-14T08:19:12.967Z,9.50
2019-02-14T08:20:20.673Z,10.25
2019-02-14T08:21:24.118Z,10.98
2019-02-14T08:22:27.621Z,21.82
2019-02-14T08:23:31.061Z,20.08
2019-02-14T08:24:34.493Z,20.08
2019-02-14T08:25:37.960Z,15.08
2019-02-14T08:26:41.421Z,11.18
2019-02-14T08:27:44.857Z,10.82
2019-02-14T08:28:48.287Z,10.63
2019-02-14T08:29:51.877Z,10.32
2019-02-14T08:30:55.352Z,11.48
2019-02-14T08:31:58.835Z,11.43
2019-02-14T08:33:02.277Z,10.75
2019-02-14T08:34:05.708Z,10.60
2019-02-14T08:35:09.210Z,10.75
2019-02-14T08:36:12.658Z,10.53
2019-02-14T08:37:16.131Z,11.35
2019-02-14T08:38:19.565Z,10.32
2019-02-14T08:39:23.289Z,10.10
2019-02-14T08:40:29.530Z,9.83
2019-02-14T08:41:32.971Z,9.10
2019-02-14T08:42:36.432Z,10.15
2019-02-14T08:43:39.872Z,10.18
2019-02-14T08:44:43.305Z,8.88
2019-02-14T08:45:46.753Z,9.00
2019-02-14T08:46:50.323Z,9.18
2019-02-14T08:47:53.721Z,8.58
2019-02-14T08:48:57.160Z,8.73
2019-02-14T08:50:00.580Z,8.63
2019-02-14T08:51:04.030Z,8.63
2019-02-14T08:52:07.486Z,7.70
2019-02-14T08:53:10.935Z,8.48
2019-02-14T08:54:14.360Z,8.23
2019-02-14T08:55:17.792Z,7.30
2019-02-14T08:56:21.223Z,7.85
2019-02-14T08:57:24.755Z,8.45
2019-02-14T08:58:28.200Z,8.00
2019-02-14T08:59:31.706Z,8.60
2019-02-14T09:00:35.371Z,8.38
2019-02-14T09:01:38.850Z,8.28
2019-02-14T09:02:42.514Z,8.95
2019-02-14T09:03:45.963Z,8.90
2019-02-14T09:04:49.392Z,8.83
2019-02-14T09:05:52.851Z,9.05
2019-02-14T09:06:56.266Z,8.63
2019-02-14T09:07:59.789Z,9.38
2019-02-14T09:09:04.502Z,9.53
2019-02-14T09:10:10.981Z,12.25
2019-02-14T09:11:14.485Z,12.90
2019-02-14T09:12:18.004Z,16.02
2019-02-14T09:13:21.483Z,16.30
2019-02-14T09:14:24.942Z,13.65
2019-02-14T09:15:28.506Z,14.25
2019-02-14T09:16:31.958Z,10.08
2019-02-14T09:17:35.555Z,9.63
2019-02-14T09:18:39.023Z,10.13
2019-02-14T09:19:42.479Z,9.00
2019-02-14T09:20:46.030Z,9.00
2019-02-14T09:21:49.484Z,8.03
2019-02-14T09:22:52.984Z,8.93
2019-02-14T09:23:56.431Z,9.38
2019-02-14T09:24:59.954Z,9.30
2019-02-14T09:26:03.544Z,8.43
2019-02-14T09:27:06.968Z,8.58
2019-02-14T09:28:10.415Z,8.80
2019-02-14T09:29:14.471Z,9.45
2019-02-14T09:30:17.966Z,8.90
2019-02-14T09:31:21.473Z,11.05
2019-02-14T09:32:25.869Z,8.95
2019-02-14T09:33:29.315Z,11.33
2019-02-14T09:34:32.779Z,8.53
2019-02-14T09:35:36.230Z,8.85
2019-02-14T09:36:39.739Z,8.60
2019-02-14T09:37:44.871Z,8.20
2019-02-14T09:38:48.315Z,8.48
2019-02-14T09:39:51.776Z,10.20
2019-02-14T09:40:55.292Z,8.88
2019-02-14T09:41:58.726Z,9.18
2019-02-14T09:43:02.165Z,8.30
2019-02-14T09:44:05.722Z,8.80
2019-02-14T09:45:11.510Z,9.73
2019-02-14T09:46:14.943Z,7.83
2019-02-14T09:47:18.490Z,7.72
2019-02-14T09:48:21.920Z,8.58
2019-02-14T09:49:25.350Z,8.38
2019-02-14T09:50:28.809Z,8.23
2019-02-14T09:51:32.240Z,8.60
2019-02-14T09:52:35.689Z,8.60
2019-02-14T09:53:39.137Z,8.13
2019-02-14T09:54:42.554Z,8.38
2019-02-14T09:55:46.082Z,8.55
2019-02-14T09:56:49.523Z,7.80
2019-02-14T09:57:52.955Z,7.95
2019-02-14T09:58:56.473Z,8.50
2019-02-14T09:59:59.904Z,8.10
2019-02-14T10:01:03.365Z,8.40
2019-02-14T10:02:06.935Z,6.90
2019-02-14T10:03:10.372Z,7.67
2019-02-14T10:04:13.879Z,8.73
2019-02-14T10:05:17.391Z,7.30
2019-02-14T10:06:20.898Z,6.65
2019-02-14T10:07:24.442Z,7.92
2019-02-14T10:08:27.956Z,7.60
2019-02-14T10:09:31.371Z,6.72
2019-02-14T10:10:34.822Z,6.83
2019-02-14T10:11:38.271Z,5.33
2019-02-14T10:12:41.732Z,6.00
2019-02-14T10:13:45.233Z,8.73
2019-02-14T10:14:48.757Z,8.88
2019-02-14T10:15:52.198Z,10.23
2019-02-14T10:16:55.668Z,40.38
2019-02-14T10:17:59.131Z,12.40
2019-02-14T10:19:02.553Z,6.33
2019-02-14T10:20:12.193Z,5.35
2019-02-14T10:21:15.761Z,5.40
2019-02-14T10:22:19.286Z,5.65
2019-02-14T10:23:22.733Z,5.95
2019-02-14T10:24:26.165Z,5.87
2019-02-14T10:25:29.601Z,4.75
2019-02-14T10:26:33.027Z,5.30
2019-02-14T10:27:36.481Z,5.12
2019-02-14T10:28:39.912Z,5.78
2019-02-14T10:29:43.346Z,6.35
2019-02-14T10:30:46.769Z,5.42
2019-02-14T10:31:50.191Z,5.60
2019-02-14T10:32:53.709Z,5.78
2019-02-14T10:33:57.133Z,5.90
2019-02-14T10:35:00.568Z,5.62
2019-02-14T10:36:04.562Z,5.35
2019-02-14T10:37:08.145Z,5.37
2019-02-14T10:38:11.585Z,5.20
2019-02-14T10:39:15.100Z,6.70
2019-02-14T10:40:18.534Z,7.17
2019-02-14T10:41:21.982Z,6.00
2019-02-14T10:42:25.410Z,5.55
2019-02-14T10:43:28.894Z,5.50
2019-02-14T10:44:32.415Z,5.65
2019-02-14T10:45:35.917Z,6.58
2019-02-14T10:46:39.419Z,5.20
2019-02-14T10:47:43.018Z,7.87
2019-02-14T10:48:46.468Z,7.03
2019-02-14T10:49:49.972Z,6.87
2019-02-14T10:50:53.435Z,6.15
2019-02-14T10:51:56.896Z,4.80
2019-02-14T10:53:00.407Z,5.37
2019-02-14T10:54:03.885Z,6.15
2019-02-14T10:55:09.939Z,5.30
2019-02-14T10:56:13.441Z,5.25
2019-02-14T10:57:16.946Z,3.92
2019-02-14T10:58:20.414Z,4.35
2019-02-14T10:59:23.863Z,5.47
2019-02-14T11:00:27.459Z,5.10
2019-02-14T11:01:30.977Z,5.28
2019-02-14T11:02:34.407Z,5.37
2019-02-14T11:03:37.900Z,5.28
2019-02-14T11:04:41.431Z,5.53
2019-02-14T11:05:44.892Z,6.83
2019-02-14T11:06:48.443Z,5.37
2019-02-14T11:07:51.967Z,6.15
2019-02-14T11:08:55.396Z,4.90
2019-02-14T11:09:58.908Z,4.72
2019-02-14T11:11:02.412Z,4.45
2019-02-14T11:12:06.006Z,4.95
2019-02-14T11:13:09.455Z,4.35
2019-02-14T11:14:12.939Z,5.78
2019-02-14T11:15:19.053Z,4.33
2019-02-14T11:16:22.505Z,4.10
2019-02-14T11:17:25.945Z,5.35
2019-02-14T11:18:29.528Z,3.42
2019-02-14T11:19:32.898Z,3.77
2019-02-14T11:20:36.523Z,4.70
2019-02-14T11:21:40.026Z,3.37
2019-02-14T11:22:43.583Z,3.42
2019-02-14T11:23:47.016Z,3.05
2019-02-14T11:24:50.442Z,2.92
2019-02-14T11:25:53.885Z,3.45
2019-02-14T11:26:57.402Z,2.90
2019-02-14T11:28:00.975Z,3.35
2019-02-14T11:29:04.476Z,3.17
2019-02-14T11:30:11.244Z,3.40
2019-02-14T11:31:14.688Z,2.85
2019-02-14T11:32:18.143Z,3.65
2019-02-14T11:33:21.611Z,3.65
2019-02-14T11:34:25.043Z,2.70
2019-02-14T11:35:28.539Z,3.15
2019-02-14T11:36:32.177Z,3.08
2019-02-14T11:37:35.682Z,3.00
2019-02-14T11:38:40.814Z,2.92
2019-02-14T11:39:44.517Z,2.92
2019-02-14T11:40:48.021Z,2.92
2019-02-14T11:41:51.495Z,3.20
2019-02-14T11:42:54.956Z,3.12
2019-02-14T11:43:58.467Z,2.85
2019-02-14T11:45:01.891Z,3.08
2019-02-14T11:46:05.464Z,2.10
2019-02-14T11:47:08.909Z,1.80
2019-02-14T11:48:12.333Z,2.00
2019-02-14T11:49:15.769Z,1.95
2019-02-14T11:50:19.361Z,2.27
2019-02-14T11:51:22.803Z,1.62
2019-02-14T11:52:26.324Z,1.90
2019-02-14T11:53:29.778Z,1.65
2019-02-14T11:54:33.213Z,1.80
2019-02-14T11:55:37.647Z,2.02
2019-02-14T11:56:41.171Z,1.77
2019-02-14T11:57:44.620Z,1.65
2019-02-14T11:58:48.066Z,1.98
2019-02-14T11:59:51.503Z,1.85
2019-02-14T12:00:54.937Z,2.47
2019-02-14T12:01:58.396Z,3.10
2019-02-14T12:03:01.866Z,9.13
2019-02-14T12:04:05.375Z,2.75
2019-02-14T12:05:08.893Z,3.33
2019-02-14T12:06:17.553Z,3.98
2019-02-14T12:07:17.559Z,11.28
2019-02-14T12:08:21.033Z,3.60
2019-02-14T12:09:24.460Z,3.60
2019-02-14T12:10:27.902Z,3.40
2019-02-14T12:11:31.413Z,3.30
2019-02-14T12:12:34.985Z,4.15
2019-02-14T12:13:39.560Z,2.55
2019-02-14T12:14:43.054Z,3.52
2019-02-14T12:15:46.489Z,3.55
2019-02-14T12:16:49.937Z,3.45
2019-02-14T12:17:53.370Z,3.37
2019-02-14T12:18:56.893Z,2.98
2019-02-14T12:20:00.416Z,3.20
2019-02-14T12:21:03.804Z,3.10
2019-02-14T12:22:07.317Z,2.98
2019-02-14T12:23:10.753Z,8.75
2019-02-14T12:24:14.210Z,10.65
2019-02-14T12:25:28.704Z,4.87
2019-02-14T12:26:32.194Z,3.72
2019-02-14T12:27:35.693Z,5.00
2019-02-14T12:28:39.133Z,4.47
2019-02-14T12:29:42.588Z,4.90
2019-02-14T12:30:46.072Z,4.00
2019-02-14T12:31:49.647Z,2.83
2019-02-14T12:32:53.071Z,3.35
2019-02-14T12:33:56.517Z,4.10
2019-02-14T12:34:59.972Z,3.60
2019-02-14T12:36:03.411Z,3.70
2019-02-14T12:37:06.923Z,3.80
2019-02-14T12:38:10.349Z,39.83
2019-02-14T12:39:13.798Z,34.75
2019-02-14T12:40:17.319Z,57.60
2019-02-14T12:41:20.778Z,30.77
2019-02-14T12:42:24.209Z,30.40
2019-02-14T12:43:27.651Z,9.83
2019-02-14T12:44:31.103Z,15.45
2019-02-14T12:45:34.537Z,9.05
2019-02-14T12:46:38.054Z,10.03
2019-02-14T12:47:41.553Z,9.53
2019-02-14T12:48:44.987Z,7.87
2019-02-14T12:49:48.530Z,6.37
2019-02-14T12:50:51.975Z,7.10
2019-02-14T12:51:55.522Z,5.92
2019-02-14T12:52:59.036Z,5.22
2019-02-14T12:54:02.617Z,4.97
2019-02-14T12:55:06.905Z,6.40
2019-02-14T12:56:10.371Z,5.60
2019-02-14T12:57:13.808Z,5.40
2019-02-14T12:58:17.283Z,5.05
2019-02-14T12:59:20.711Z,4.55
2019-02-14T13:00:24.743Z,4.20
2019-02-14T13:01:28.199Z,3.95
2019-02-14T13:02:31.703Z,4.20
2019-02-14T13:03:35.134Z,3.37
2019-02-14T13:04:38.566Z,3.40
2019-02-14T13:05:42.020Z,3.75
2019-02-14T13:06:45.537Z,4.00
2019-02-14T13:07:49.066Z,4.00
2019-02-14T13:08:52.566Z,3.80
2019-02-14T13:09:56.008Z,3.85
2019-02-14T13:10:59.457Z,3.90
2019-02-14T13:12:02.905Z,3.72
2019-02-14T13:13:06.412Z,4.15
2019-02-14T13:14:09.850Z,4.00
2019-02-14T13:15:28.732Z,3.10
2019-02-14T13:16:32.185Z,3.92
2019-02-14T13:17:35.632Z,23.60
2019-02-14T13:18:39.111Z,9.50
2019-02-14T13:19:42.546Z,4.42
2019-02-14T13:20:46.068Z,4.60
2019-02-14T13:21:49.595Z,34.90
2019-02-14T13:22:53.037Z,4.40
2019-02-14T13:23:56.554Z,4.15
2019-02-14T13:25:00.053Z,3.58
2019-02-14T13:26:03.663Z,3.35
2019-02-14T13:27:07.095Z,3.95
2019-02-14T13:28:10.538Z,2.60
2019-02-14T13:29:13.969Z,2.85
2019-02-14T13:30:19.949Z,3.20
2019-02-14T13:31:31.540Z,2.60
2019-02-14T13:32:28.619Z,3.10
2019-02-14T13:33:32.058Z,2.42
2019-02-14T13:34:35.500Z,3.17
2019-02-14T13:35:38.934Z,3.20
2019-02-14T13:36:42.372Z,2.77
2019-02-14T13:37:45.822Z,3.00
2019-02-14T13:38:49.260Z,3.75
2019-02-14T13:39:52.697Z,4.05
2019-02-14T13:40:56.218Z,9.88
2019-02-14T13:41:59.662Z,6.62
2019-02-14T13:43:03.103Z,4.40
2019-02-14T13:44:06.541Z,4.10
2019-02-14T13:45:12.429Z,3.50
2019-02-14T13:46:15.881Z,3.80
2019-02-14T13:47:19.374Z,3.50
2019-02-14T13:48:22.874Z,3.80
2019-02-14T13:49:26.348Z,4.15
2019-02-14T13:50:29.851Z,4.92
2019-02-14T13:51:33.360Z,3.98
2019-02-14T13:52:36.929Z,4.67
2019-02-14T13:53:40.413Z,5.17
2019-02-14T13:54:43.874Z,5.42
2019-02-14T13:55:47.378Z,6.40
2019-02-14T13:56:54.157Z,5.22
2019-02-14T13:57:55.980Z,5.58
2019-02-14T13:58:59.429Z,4.75
2019-02-14T14:00:04.654Z,5.10
2019-02-14T14:01:08.215Z,4.90